createdAt,value
2019-01-11T00:00:29.112Z,-0.10
2019-01-11T00:03:00.193Z,-0.10
2019-01-11T00:05:30.500Z,-0.10
2019-01-11T00:08:02.000Z,-0.20
2019-01-11T00:10:32.900Z,-0.20
2019-01-11T00:13:03.765Z,-0.30
2019-01-11T00:15:34.771Z,-0.30
2019-01-11T00:18:05.797Z,-0.30
2019-01-11T00:20:36.752Z,-0.20
2019-01-11T00:23:07.079Z,-0.30
2019-01-11T00:25:37.753Z,-0.30
2019-01-11T00:28:08.464Z,-0.30
2019-01-11T00:30:39.086Z,-0.30
2019-01-11T00:33:09.377Z,-0.30
2019-01-11T00:35:40.376Z,-0.30
2019-01-11T00:38:11.365Z,-0.30
2019-01-11T00:40:42.253Z,-0.30
2019-01-11T00:43:15.175Z,-0.30
2019-01-11T00:45:46.578Z,-0.40
2019-01-11T00:48:17.155Z,-0.40
2019-01-11T00:50:48.149Z,-0.40
2019-01-11T00:53:18.959Z,-0.40
2019-01-11T00:55:49.609Z,-0.40
2019-01-11T00:58:19.890Z,-0.40
2019-01-11T01:00:50.698Z,-0.40
2019-01-11T01:03:21.356Z,-0.40
2019-01-11T01:05:52.165Z,-0.40
2019-01-11T01:08:23.055Z,-0.50
2019-01-11T01:10:53.643Z,-0.50
2019-01-11T01:13:24.874Z,-0.50
2019-01-11T01:15:57.123Z,-0.60
2019-01-11T01:18:28.053Z,-0.50
2019-01-11T01:20:58.777Z,-0.60
2019-01-11T01:23:29.708Z,-0.60
2019-01-11T01:26:00.368Z,-0.60
2019-01-11T01:28:31.255Z,-0.70
2019-01-11T01:31:02.741Z,-0.70
2019-01-11T01:33:33.387Z,-0.70
2019-01-11T01:36:04.764Z,-0.70
2019-01-11T01:38:36.112Z,-0.70
2019-01-11T01:41:06.821Z,-0.70
2019-01-11T01:43:38.430Z,-0.70
2019-01-11T01:46:09.591Z,-0.80
2019-01-11T01:48:40.192Z,-0.80
2019-01-11T01:51:10.495Z,-0.90
2019-01-11T01:53:41.831Z,-0.80
2019-01-11T01:56:12.418Z,-1.00
2019-01-11T01:58:43.077Z,-0.90
2019-01-11T02:01:14.017Z,-0.90
2019-01-11T02:03:44.330Z,-0.90
2019-01-11T02:06:14.988Z,-0.90
2019-01-11T02:08:46.339Z,-1.00
2019-01-11T02:11:16.935Z,-1.00
2019-01-11T02:13:48.218Z,-1.00
2019-01-11T02:16:19.205Z,-0.90
2019-01-11T02:18:50.402Z,-1.00
2019-01-11T02:21:21.436Z,-1.00
2019-01-11T02:23:52.094Z,-1.00
2019-01-11T02:26:23.140Z,-1.10
2019-01-11T02:28:54.209Z,-1.10
2019-01-11T02:31:25.692Z,-1.10
2019-01-11T02:33:56.761Z,-1.10
2019-01-11T02:36:27.691Z,-1.10
2019-01-11T02:39:18.355Z,-1.00
2019-01-11T02:41:52.376Z,-1.00
2019-01-11T02:44:23.425Z,-1.10
2019-01-11T02:46:54.059Z,-1.10
2019-01-11T02:49:24.697Z,-1.10
2019-01-11T02:51:56.049Z,-1.10
2019-01-11T02:54:27.294Z,-1.10
2019-01-11T02:57:00.556Z,-1.00
2019-01-11T02:59:31.297Z,-1.00
2019-01-11T03:02:02.288Z,-1.10
2019-01-11T03:04:33.511Z,-1.10
2019-01-11T03:07:04.558Z,-1.00
2019-01-11T03:09:35.172Z,-1.10
2019-01-11T03:12:06.161Z,-1.10
2019-01-11T03:14:37.465Z,-1.20
2019-01-11T03:17:08.102Z,-1.20
2019-01-11T03:19:39.443Z,-1.20
2019-01-11T03:22:10.505Z,-1.20
2019-01-11T03:24:42.042Z,-1.20
2019-01-11T03:27:13.085Z,-1.20
2019-01-11T03:29:44.407Z,-1.30
2019-01-11T03:32:15.355Z,-1.30
2019-01-11T03:35:08.540Z,-1.30
2019-01-11T03:37:39.221Z,-1.30
2019-01-11T03:40:11.603Z,-1.30
2019-01-11T03:42:42.881Z,-1.30
2019-01-11T03:45:16.053Z,-1.30
2019-01-11T03:47:46.713Z,-1.30
2019-01-11T03:50:19.554Z,-1.30
2019-01-11T03:52:51.146Z,-1.30
2019-01-11T03:55:23.623Z,-1.20
2019-01-11T03:57:54.655Z,-1.20
2019-01-11T04:00:26.054Z,-1.00
2019-01-11T04:02:57.317Z,-1.20
2019-01-11T04:05:28.635Z,-1.10
2019-01-11T04:07:59.519Z,-1.10
2019-01-11T04:10:30.465Z,-1.10
2019-01-11T04:13:01.697Z,-1.10
2019-01-11T04:15:33.030Z,-1.00
2019-01-11T04:18:25.335Z,-1.00
2019-01-11T04:20:57.193Z,-1.10
2019-01-11T04:23:28.331Z,-1.10
2019-01-11T04:25:59.132Z,-1.00
2019-01-11T04:28:30.184Z,-1.00
2019-01-11T04:31:02.496Z,-1.00
2019-01-11T04:33:49.677Z,-1.00
2019-01-11T04:36:21.635Z,-1.00
2019-01-11T04:38:52.888Z,-1.10
2019-01-11T04:41:24.133Z,-1.10
2019-01-11T04:44:07.349Z,-1.10
2019-01-11T04:46:38.207Z,-1.10
2019-01-11T04:49:09.312Z,-1.10
2019-01-11T04:51:40.652Z,-1.00
2019-01-11T04:54:11.335Z,-1.10
2019-01-11T04:56:41.999Z,-1.00
2019-01-11T04:59:13.244Z,-1.10
2019-01-11T05:01:44.245Z,-1.10
2019-01-11T05:04:15.561Z,-1.10
2019-01-11T05:06:46.207Z,-1.10
2019-01-11T05:09:17.611Z,-1.00
2019-01-11T05:11:48.276Z,-1.00
2019-01-11T05:14:19.277Z,-1.00
2019-01-11T05:16:50.044Z,-1.00
2019-01-11T05:19:32.575Z,-1.00
2019-01-11T05:22:03.569Z,-1.00
2019-01-11T05:24:35.016Z,-1.00
2019-01-11T05:27:05.982Z,-1.00
2019-01-11T05:29:36.860Z,-1.00
2019-01-11T05:32:07.156Z,-1.00
2019-01-11T05:34:37.782Z,-1.00
2019-01-11T05:37:09.114Z,-1.00
2019-01-11T05:39:40.409Z,-1.00
2019-01-11T05:42:11.429Z,-1.00
2019-01-11T05:44:42.870Z,-1.00
2019-01-11T05:47:13.851Z,-1.10
2019-01-11T05:49:44.592Z,-1.10
2019-01-11T05:52:15.571Z,-1.10
2019-01-11T05:54:46.532Z,-1.10
2019-01-11T05:57:17.242Z,-1.10
2019-01-11T05:59:58.319Z,-1.10
2019-01-11T06:02:29.664Z,-1.10
2019-01-11T06:05:07.188Z,-1.10
2019-01-11T06:07:54.967Z,-1.00
2019-01-11T06:10:26.367Z,-1.10
2019-01-11T06:12:57.157Z,-1.00
2019-01-11T06:15:27.755Z,-1.00
2019-01-11T06:17:58.775Z,-1.00
2019-01-11T06:20:30.444Z,-1.00
2019-01-11T06:23:01.444Z,-1.10
2019-01-11T06:25:32.091Z,-1.10
2019-01-11T06:28:03.033Z,-1.00
2019-01-11T06:30:38.553Z,-1.10
2019-01-11T06:33:09.206Z,-1.20
2019-01-11T06:35:53.766Z,-1.20
2019-01-11T06:38:25.108Z,-1.20
2019-01-11T06:40:56.065Z,-1.20
2019-01-11T06:43:27.118Z,-1.20
2019-01-11T06:45:58.431Z,-1.20
2019-01-11T06:48:51.261Z,-1.20
2019-01-11T06:51:22.553Z,-1.20
2019-01-11T06:53:53.260Z,-1.20
2019-01-11T06:56:24.000Z,-1.10
2019-01-11T06:58:54.888Z,-1.20
2019-01-11T07:01:26.429Z,-1.10
2019-01-11T07:03:57.432Z,-1.10
2019-01-11T07:06:32.584Z,-1.10
2019-01-11T07:09:04.873Z,-1.10
2019-01-11T07:11:35.903Z,-1.10
2019-01-11T07:14:06.533Z,-1.10
2019-01-11T07:16:59.776Z,-1.10
2019-01-11T07:19:31.126Z,-1.10
2019-01-11T07:22:01.607Z,-1.10
2019-01-11T07:24:32.913Z,-1.10
2019-01-11T07:27:03.208Z,-1.10
2019-01-11T07:29:45.417Z,-1.10
2019-01-11T07:32:16.401Z,-1.10
2019-01-11T07:34:59.776Z,-1.00
2019-01-11T07:37:30.732Z,-1.00
2019-01-11T07:40:01.819Z,-0.90
2019-01-11T07:42:33.060Z,-0.90
2019-01-11T07:45:03.654Z,-1.00
2019-01-11T07:47:34.587Z,-0.90
2019-01-11T07:50:06.436Z,-1.00
2019-01-11T07:52:58.686Z,-0.90
2019-01-11T07:55:29.738Z,-0.90
2019-01-11T07:58:00.770Z,-1.00
2019-01-11T08:00:31.394Z,-1.00
2019-01-11T08:03:02.499Z,-1.00
2019-01-11T08:05:33.733Z,-1.00
2019-01-11T08:08:04.733Z,-1.00
2019-01-11T08:10:35.512Z,-1.10
2019-01-11T08:13:06.199Z,-1.20
2019-01-11T08:15:38.058Z,-1.20
2019-01-11T08:18:08.752Z,-1.20
2019-01-11T08:20:39.789Z,-1.20
2019-01-11T08:23:10.399Z,-1.20
2019-01-11T08:25:42.304Z,-1.20
2019-01-11T08:28:14.184Z,-1.20
2019-01-11T08:30:44.873Z,-1.30
2019-01-11T08:33:18.719Z,-1.30
2019-01-11T08:35:48.400Z,-1.30
2019-01-11T08:38:19.799Z,-1.20
2019-01-11T08:40:50.804Z,-1.20
2019-01-11T08:43:21.779Z,-1.20
2019-01-11T08:45:52.600Z,-1.10
2019-01-11T08:48:24.286Z,-1.10
2019-01-11T08:50:55.624Z,-1.10
2019-01-11T08:53:26.673Z,-1.00
2019-01-11T08:55:57.578Z,-1.00
2019-01-11T08:58:28.330Z,-0.80
2019-01-11T09:00:59.540Z,-0.80
2019-01-11T09:03:30.884Z,-0.70
2019-01-11T09:06:01.896Z,-0.60
2019-01-11T09:08:33.515Z,-0.50
2019-01-11T09:11:04.206Z,-0.50
2019-01-11T09:13:34.846Z,-0.50
2019-01-11T09:16:06.554Z,-0.40
2019-01-11T09:18:53.354Z,-0.50
2019-01-11T09:21:24.783Z,-0.40
2019-01-11T09:23:55.803Z,-0.10
2019-01-11T09:26:26.462Z,0.10
2019-01-11T09:29:07.596Z,0.10
2019-01-11T09:31:39.048Z,0.20
2019-01-11T09:34:10.039Z,0.10
2019-01-11T09:36:41.054Z,0.30
2019-01-11T09:39:12.160Z,0.30
2019-01-11T09:41:43.118Z,0.70
2019-01-11T09:44:14.173Z,1.10
2019-01-11T09:46:45.199Z,1.60
2019-01-11T09:49:16.205Z,1.90
2019-01-11T09:51:47.553Z,2.10
2019-01-11T09:54:18.533Z,1.80
2019-01-11T09:56:50.291Z,2.00
2019-01-11T09:59:21.314Z,2.30
2019-01-11T10:02:09.719Z,2.40
2019-01-11T10:04:41.521Z,2.80
2019-01-11T10:07:25.032Z,3.30
2019-01-11T10:09:57.769Z,3.50
2019-01-11T10:12:29.000Z,3.10
2019-01-11T10:15:01.515Z,3.50
2019-01-11T10:17:33.033Z,3.60
2019-01-11T10:20:04.528Z,3.40
2019-01-11T10:22:36.110Z,2.60
2019-01-11T10:25:08.458Z,3.00
2019-01-11T10:27:39.698Z,3.40
2019-01-11T10:30:15.495Z,3.70
2019-01-11T10:32:46.944Z,3.90
2019-01-11T10:35:18.021Z,4.10
2019-01-11T10:37:49.035Z,4.40
2019-01-11T10:40:19.776Z,4.00
2019-01-11T10:42:50.602Z,4.40
2019-01-11T10:45:23.107Z,4.60
2019-01-11T10:47:55.984Z,4.60
2019-01-11T10:50:26.646Z,4.20
2019-01-11T10:52:57.782Z,3.70
2019-01-11T10:55:28.361Z,3.50
2019-01-11T10:58:02.461Z,3.50
2019-01-11T11:00:35.590Z,3.80
2019-01-11T11:03:07.571Z,3.60
2019-01-11T11:05:38.373Z,2.90
2019-01-11T11:08:09.570Z,2.70
2019-01-11T11:10:40.597Z,3.10
2019-01-11T11:13:11.925Z,3.20
2019-01-11T11:15:45.867Z,3.20
2019-01-11T11:18:16.535Z,3.30
2019-01-11T11:20:47.579Z,3.70
2019-01-11T11:23:20.972Z,3.40
2019-01-11T11:25:51.902Z,2.80
2019-01-11T11:28:22.529Z,2.60
2019-01-11T11:30:52.947Z,2.10
2019-01-11T11:33:23.279Z,2.30
2019-01-11T11:35:54.233Z,2.80
2019-01-11T11:38:25.213Z,3.40
2019-01-11T11:40:56.211Z,4.00
2019-01-11T11:43:27.231Z,4.00
2019-01-11T11:45:58.316Z,4.20
2019-01-11T11:48:29.618Z,3.80
2019-01-11T11:51:00.737Z,3.30
2019-01-11T11:53:31.358Z,3.00
2019-01-11T11:56:02.599Z,2.60
2019-01-11T11:58:41.703Z,2.80
2019-01-11T12:01:12.791Z,2.90
2019-01-11T12:03:43.618Z,3.40
2019-01-11T12:06:14.607Z,3.40
2019-01-11T12:08:46.235Z,3.40
2019-01-11T12:11:17.692Z,3.30
2019-01-11T12:13:49.112Z,3.10
2019-01-11T12:16:20.810Z,3.00
2019-01-11T12:18:51.274Z,2.90
2019-01-11T12:21:22.566Z,2.10
2019-01-11T12:23:54.165Z,1.80
2019-01-11T12:26:25.683Z,1.70
2019-01-11T12:28:56.821Z,1.80
2019-01-11T12:31:28.193Z,1.80
2019-01-11T12:33:59.233Z,1.60
2019-01-11T12:36:30.555Z,1.60
2019-01-11T12:39:01.492Z,1.50
2019-01-11T12:41:31.785Z,1.40
2019-01-11T12:44:02.175Z,1.40
2019-01-11T12:46:32.478Z,1.40
2019-01-11T12:49:03.836Z,1.50
2019-01-11T12:51:34.781Z,1.30
2019-01-11T12:54:05.381Z,1.40
2019-01-11T12:56:36.694Z,1.40
2019-01-11T12:59:07.791Z,1.40
2019-01-11T13:01:38.908Z,1.50
2019-01-11T13:04:09.558Z,1.50
2019-01-11T13:06:40.617Z,1.40
2019-01-11T13:09:11.640Z,1.40
2019-01-11T13:11:45.551Z,1.40
2019-01-11T13:14:16.192Z,1.50
2019-01-11T13:16:46.878Z,1.30
2019-01-11T13:19:17.859Z,1.20
2019-01-11T13:21:48.494Z,1.20
2019-01-11T13:24:18.785Z,1.30
2019-01-11T13:26:49.862Z,1.30
2019-01-11T13:29:20.306Z,1.30
2019-01-11T13:31:52.349Z,1.30
2019-01-11T13:34:23.407Z,1.30
2019-01-11T13:36:56.787Z,1.30
2019-01-11T13:39:27.945Z,1.20
2019-01-11T13:42:08.065Z,1.20
2019-01-11T13:44:39.360Z,1.00
2019-01-11T13:47:10.044Z,1.10
2019-01-11T13:49:41.151Z,1.20
2019-01-11T13:52:12.260Z,1.20
2019-01-11T13:54:42.559Z,1.20
2019-01-11T13:57:12.872Z,1.20
2019-01-11T13:59:44.370Z,1.20
2019-01-11T14:02:15.079Z,1.20
2019-01-11T14:04:46.648Z,1.20
2019-01-11T14:07:18.018Z,1.20
2019-01-11T14:09:51.996Z,1.00
2019-01-11T14:12:25.771Z,1.00
2019-01-11T14:14:59.768Z,1.10
2019-01-11T14:17:30.730Z,1.10
2019-01-11T14:20:05.715Z,1.10
2019-01-11T14:22:37.550Z,1.20
2019-01-11T14:25:08.615Z,1.10
2019-01-11T14:27:40.088Z,1.10
2019-01-11T14:30:11.587Z,1.00
2019-01-11T14:32:43.282Z,0.90
2019-01-11T14:35:14.367Z,1.00
2019-01-11T14:37:55.543Z,1.00
2019-01-11T14:40:26.348Z,1.00
2019-01-11T14:42:57.074Z,1.00
2019-01-11T14:45:39.268Z,0.80
2019-01-11T14:48:13.364Z,0.80
2019-01-11T14:50:49.824Z,0.80
2019-01-11T14:53:22.047Z,0.90
2019-01-11T14:55:56.232Z,1.00
2019-01-11T14:58:28.860Z,0.80
2019-01-11T15:01:00.608Z,0.70
2019-01-11T15:03:31.827Z,0.70
2019-01-11T15:06:05.153Z,0.70
2019-01-11T15:08:38.225Z,0.70
2019-01-11T15:11:08.974Z,0.70
2019-01-11T15:13:39.532Z,0.70
2019-01-11T15:16:14.687Z,0.60
2019-01-11T15:18:47.614Z,0.50
2019-01-11T15:21:18.609Z,0.50
2019-01-11T15:23:54.309Z,0.60
2019-01-11T15:26:25.331Z,0.50
2019-01-11T15:28:58.689Z,0.50
2019-01-11T15:31:31.331Z,0.40
2019-01-11T15:34:11.492Z,0.40
2019-01-11T15:36:43.247Z,0.40
2019-01-11T15:39:16.533Z,0.40
2019-01-11T15:42:00.300Z,0.40
2019-01-11T15:44:44.088Z,0.40
2019-01-11T15:47:15.627Z,0.30
2019-01-11T15:49:46.547Z,0.40
2019-01-11T15:52:18.093Z,0.30
2019-01-11T15:54:48.922Z,0.30
2019-01-11T15:57:41.853Z,0.30
2019-01-11T16:00:20.498Z,0.30
2019-01-11T16:02:51.686Z,0.20
2019-01-11T16:05:22.247Z,0.20
2019-01-11T16:07:53.336Z,0.20
2019-01-11T16:10:28.343Z,0.30
2019-01-11T16:14:21.521Z,0.20
2019-01-11T16:17:09.376Z,0.20
2019-01-11T16:19:53.586Z,0.20
2019-01-11T16:22:24.511Z,0.10
2019-01-11T16:24:55.517Z,0.10
2019-01-11T16:27:27.461Z,0.10
2019-01-11T16:30:04.000Z,0.10
2019-01-11T16:32:35.020Z,0.10
2019-01-11T16:35:06.514Z,0.10
2019-01-11T16:37:39.183Z,0.10
2019-01-11T16:40:11.655Z,-0.10
2019-01-11T16:42:53.676Z,0.10
2019-01-11T16:45:25.306Z,0.10
2019-01-11T16:47:56.055Z,0.10
2019-01-11T16:50:36.862Z,0.00
2019-01-11T16:53:07.158Z,0.10
2019-01-11T16:55:37.865Z,0.10
2019-01-11T16:58:15.771Z,0.10
2019-01-11T17:00:46.879Z,0.10
2019-01-11T17:03:17.626Z,0.10
2019-01-11T17:05:51.654Z,0.10
2019-01-11T17:08:22.364Z,0.10
2019-01-11T17:10:52.997Z,0.10
2019-01-11T17:13:24.291Z,0.20
2019-01-11T17:15:54.644Z,0.10
2019-01-11T17:18:25.787Z,0.10
2019-01-11T17:20:56.479Z,0.10
2019-01-11T17:23:27.428Z,0.10
2019-01-11T17:25:59.116Z,0.20
2019-01-11T17:28:30.278Z,0.20
2019-01-11T17:31:04.926Z,0.10
2019-01-11T17:33:36.279Z,0.20
2019-01-11T17:36:06.854Z,0.10
2019-01-11T17:38:47.043Z,0.10
2019-01-11T17:41:17.883Z,0.10
2019-01-11T17:43:48.281Z,0.00
2019-01-11T17:46:20.960Z,0.00
2019-01-11T17:48:52.267Z,0.00
2019-01-11T17:51:22.985Z,0.00
2019-01-11T17:53:54.353Z,0.00
2019-01-11T17:56:27.325Z,0.00
2019-01-11T17:58:58.285Z,-0.10
2019-01-11T18:01:30.330Z,0.00
2019-01-11T18:04:02.067Z,0.00
2019-01-11T18:06:33.224Z,0.00
2019-01-11T18:09:05.502Z,0.10
2019-01-11T18:11:36.227Z,0.10
2019-01-11T18:14:07.989Z,0.00
2019-01-11T18:16:39.445Z,0.00
2019-01-11T18:19:22.563Z,0.00
2019-01-11T18:21:56.580Z,-0.10
2019-01-11T18:24:41.865Z,-0.10
2019-01-11T18:27:12.163Z,-0.10
2019-01-11T18:29:42.464Z,-0.20
2019-01-11T18:32:13.766Z,-0.30
2019-01-11T18:34:44.486Z,-0.30
2019-01-11T18:37:15.091Z,-0.30
2019-01-11T18:39:45.873Z,-0.30
2019-01-11T18:42:17.872Z,-0.40
2019-01-11T18:44:52.625Z,-0.40
2019-01-11T18:47:23.807Z,-0.40
2019-01-11T18:49:57.221Z,-0.40
2019-01-11T18:52:29.170Z,-0.40
2019-01-11T18:55:04.935Z,-0.40
2019-01-11T18:57:40.241Z,-0.30
2019-01-11T19:00:26.446Z,-0.30
2019-01-11T19:03:04.175Z,-0.40
2019-01-11T19:05:48.718Z,-0.30
2019-01-11T19:08:20.833Z,-0.30
2019-01-11T19:10:58.873Z,-0.30
2019-01-11T19:13:32.905Z,-0.30
2019-01-11T19:16:17.003Z,-0.30
2019-01-11T19:18:50.140Z,-0.30
2019-01-11T19:21:21.813Z,-0.40
2019-01-11T19:23:57.799Z,-0.30
2019-01-11T19:26:35.529Z,-0.30
2019-01-11T19:29:10.563Z,-0.30
2019-01-11T19:31:43.723Z,-0.40
2019-01-11T19:34:16.792Z,-0.30
2019-01-11T19:36:49.137Z,-0.30
2019-01-11T19:39:26.467Z,-0.30
2019-01-11T19:41:58.670Z,-0.30
2019-01-11T19:44:39.156Z,-0.30
2019-01-11T19:47:11.486Z,-0.40
2019-01-11T19:49:42.132Z,-0.40
2019-01-11T19:52:13.386Z,-0.30
2019-01-11T19:54:44.433Z,-0.40
2019-01-11T19:57:26.795Z,-0.40
2019-01-11T19:59:58.149Z,-0.40
2019-01-11T20:02:29.317Z,-0.40
2019-01-11T20:05:15.826Z,-0.40
2019-01-11T20:07:47.725Z,-0.40
2019-01-11T20:10:33.121Z,-0.30
2019-01-11T20:13:03.964Z,-0.30
2019-01-11T20:15:35.106Z,-0.30
2019-01-11T20:18:07.112Z,-0.20
2019-01-11T20:20:38.454Z,-0.10
2019-01-11T20:23:10.034Z,-0.20
2019-01-11T20:25:40.754Z,-0.10
2019-01-11T20:28:14.062Z,-0.20
2019-01-11T20:30:47.795Z,-0.10
2019-01-11T20:33:27.654Z,-0.20
2019-01-11T20:36:02.256Z,-0.20
2019-01-11T20:38:34.641Z,-0.20
2019-01-11T20:41:07.133Z,-0.20
2019-01-11T20:43:37.784Z,-0.20
2019-01-11T20:46:09.557Z,-0.20
2019-01-11T20:48:44.115Z,-0.20
2019-01-11T20:51:34.185Z,-0.10
2019-01-11T20:54:09.906Z,-0.10
2019-01-11T20:56:48.995Z,-0.20
2019-01-11T20:59:21.044Z,-0.10
2019-01-11T21:01:59.546Z,-0.10
2019-01-11T21:04:38.281Z,-0.10
2019-01-11T21:07:09.307Z,-0.10
2019-01-11T21:09:40.042Z,0.00
2019-01-11T21:12:11.073Z,0.00
2019-01-11T21:14:43.027Z,0.00
2019-01-11T21:17:22.738Z,0.00
2019-01-11T21:20:03.465Z,0.00
2019-01-11T21:22:37.126Z,-0.10
2019-01-11T21:25:10.092Z,0.00
2019-01-11T21:27:41.703Z,0.00
2019-01-11T21:30:24.323Z,0.00
2019-01-11T21:32:57.648Z,0.00
2019-01-11T21:35:41.540Z,0.10
2019-01-11T21:38:13.660Z,0.10
2019-01-11T21:40:47.960Z,0.10
2019-01-11T21:43:27.875Z,0.10
2019-01-11T21:46:03.746Z,0.10
2019-01-11T21:49:05.814Z,0.10
2019-01-11T21:51:36.508Z,0.10
2019-01-11T21:54:12.608Z,0.20
2019-01-11T21:56:53.785Z,0.20
2019-01-11T21:59:39.049Z,0.20
2019-01-11T22:02:15.725Z,0.20
2019-01-11T22:04:49.190Z,0.20
2019-01-11T22:07:29.926Z,0.20
2019-01-11T22:10:01.582Z,0.20
2019-01-11T22:12:35.146Z,0.20
2019-01-11T22:15:09.604Z,0.30
2019-01-11T22:17:44.149Z,0.30
2019-01-11T22:20:18.786Z,0.30
2019-01-11T22:22:49.792Z,0.20
2019-01-11T22:25:35.878Z,0.20
2019-01-11T22:28:11.727Z,0.20
2019-01-11T22:30:44.247Z,0.20
2019-01-11T22:33:16.379Z,0.10
2019-01-11T22:35:48.158Z,0.20
2019-01-11T22:38:19.497Z,0.10
2019-01-11T22:40:49.894Z,0.10
2019-01-11T22:43:21.038Z,0.10
2019-01-11T22:45:52.979Z,0.10
2019-01-11T22:48:24.078Z,0.10
2019-01-11T22:50:56.132Z,0.10
2019-01-11T22:53:27.414Z,0.10
2019-01-11T22:55:59.154Z,0.20
2019-01-11T22:58:38.632Z,0.20
2019-01-11T23:01:45.925Z,0.30
2019-01-11T23:04:28.311Z,0.30
2019-01-11T23:07:30.379Z,0.30
2019-01-11T23:10:36.529Z,0.40
2019-01-11T23:13:12.936Z,0.40
2019-01-11T23:16:02.324Z,0.40
2019-01-11T23:18:37.189Z,0.50
2019-01-11T23:21:10.199Z,0.40
2019-01-11T23:23:41.478Z,0.40
2019-01-11T23:26:12.196Z,0.50
2019-01-11T23:28:43.752Z,0.50
2019-01-11T23:31:14.525Z,0.50
2019-01-11T23:33:45.195Z,0.50
2019-01-11T23:36:15.897Z,0.50
2019-01-11T23:38:48.121Z,0.50
2019-01-11T23:41:19.208Z,0.50
2019-01-11T23:43:54.627Z,0.60
2019-01-11T23:46:25.891Z,0.50
2019-01-11T23:49:00.541Z,0.50
2019-01-11T23:51:31.415Z,0.60
2019-01-11T23:54:02.140Z,0.50
2019-01-11T23:56:33.038Z,0.60
2019-01-11T23:59:06.823Z,0.50
